Date,TemperatureHighF,TemperatureAvgF,TemperatureLowF,DewpointHighF,DewpointAvgF,DewpointLowF,HumidityHigh,HumidityAvg,HumidityLow,PressureMaxIn,PressureMinIn,WindSpeedMaxMPH,WindSpeedAvgMPH,GustSpeedMaxMPH,PrecipitationSumIn
2013-3-1,43,36,31,-100,-100,-100,0,0,100,0.00,40.00,0,-999,0,0.00
2013-3-2,42,37,32,-100,-100,-100,0,0,100,0.00,40.00,0,-999,0,0.00
2013-3-3,36,33,28,-100,-100,-100,0,0,100,0.00,40.00,0,-999,0,0.01
2013-3-4,35,28,21,-100,-100,-100,0,0,100,0.00,40.00,0,-999,0,0.00
2013-3-5,38,33,27,-100,-100,-100,0,0,100,0.00,40.00,0,-999,0,0.02
2013-3-6,39,31,27,-100,-100,-100,0,0,100,0.00,40.00,0,-999,0,0.04
2013-3-7,30,28,24,-100,-100,-100,0,0,100,0.00,40.00,0,-999,0,0.01
2013-3-8,30,26,22,-100,-100,-100,0,0,100,0.00,40.00,0,-999,0,0.02
2013-3-9,31,24,21,-100,-100,-100,0,0,100,0.00,40.00,0,-999,0,0.01
2013-3-10,45,33,24,-100,-100,-100,0,0,100,0.00,40.00,0,-999,0,0.01
2013-3-11,42,35,31,-100,-100,-100,0,0,100,0.00,40.00,0,-999,0,0.00
2013-3-12,47,38,33,-100,-100,-100,0,0,100,0.00,40.00,0,-999,0,0.00
2013-3-13,50,44,36,-100,-100,-100,0,0,100,0.00,40.00,0,-999,0,0.00
2013-3-14,52,46,39,-100,-100,-100,0,0,100,0.00,40.00,0,-999,0,0.00
2013-3-15,53,46,39,-100,-100,-100,0,0,100,0.00,40.00,0,-999,0,0.00
2013-3-16,46,40,35,-100,-100,-100,0,0,100,0.00,40.00,0,-999,0,0.00
2013-3-17,40,32,27,-100,-100,-100,0,0,100,0.00,40.00,0,-999,0,0.02
2013-3-18,40,32,24,-100,-100,-100,0,0,100,0.00,40.00,0,-999,0,0.01
2013-3-19,40,35,27,-100,-100,-100,0,0,100,0.00,40.00,0,-999,0,0.00
2013-3-20,44,39,35,-100,-100,-100,0,0,100,0.00,40.00,0,-999,0,0.00
2013-3-21,34,30,22,-100,-100,-100,0,0,100,0.00,40.00,0,-999,0,0.01
2013-3-22,28,22,12,-100,-100,-100,0,0,100,0.00,40.00,0,-999,0,0.01
2013-3-23,27,17,6,-100,-100,-100,0,0,100,0.00,40.00,0,-999,0,0.01
2013-3-24,34,26,17,-100,-100,-100,0,0,100,0.00,40.00,0,-999,0,0.01
2013-3-25,44,36,29,-100,-100,-100,0,0,100,0.00,40.00,0,-999,0,0.01
2013-3-26,46,38,33,-100,-100,-100,0,0,100,0.00,40.00,0,-999,0,0.01
2013-3-27,46,38,31,-100,-100,-100,0,0,100,0.00,40.00,0,-999,0,0.00
2013-3-28,45,38,32,-100,-100,-100,0,0,100,0.00,40.00,0,-999,0,0.00
2013-3-29,46,41,34,-100,-100,-100,0,0,100,0.00,40.00,0,-999,0,0.00
2013-3-30,50,43,36,-100,-100,-100,0,0,100,0.00,40.00,0,-999,0,0.01
2013-3-31,47,41,36,-100,-100,-100,0,0,100,0.00,40.00,0,-999,0,0.01